createdAt,value
2024-01-21T00:01:34.372Z,-3.35
2024-01-21T00:04:02.690Z,-3.38
2024-01-21T00:06:30.806Z,-3.38
2024-01-21T00:08:58.952Z,-3.36
2024-01-21T00:11:26.879Z,-3.36
2024-01-21T00:13:55.122Z,-3.39
2024-01-21T00:16:23.097Z,-3.39
2024-01-21T00:18:51.091Z,-3.38
2024-01-21T00:21:19.225Z,-3.40
2024-01-21T00:23:47.653Z,-3.37
2024-01-21T00:26:15.599Z,-3.35
2024-01-21T00:28:43.880Z,-3.34
2024-01-21T00:31:12.335Z,-3.35
2024-01-21T00:33:41.189Z,-3.37
2024-01-21T00:36:12.982Z,-3.37
2024-01-21T00:38:42.867Z,-3.35
2024-01-21T00:41:15.759Z,-3.33
2024-01-21T00:43:43.864Z,-3.29
2024-01-21T00:46:12.007Z,-3.24
2024-01-21T00:48:41.070Z,-3.20
2024-01-21T00:51:09.255Z,-3.17
2024-01-21T00:53:37.309Z,-3.13
2024-01-21T00:56:05.903Z,-3.06
2024-01-21T00:58:33.888Z,-3.07
2024-01-21T01:01:01.892Z,-3.10
2024-01-21T01:03:30.090Z,-3.10
2024-01-21T01:06:00.361Z,-3.09
2024-01-21T01:08:28.267Z,-3.10
2024-01-21T01:10:56.267Z,-3.14
2024-01-21T01:13:24.290Z,-3.18
2024-01-21T01:15:52.373Z,-3.20
2024-01-21T01:18:20.681Z,-3.23
2024-01-21T01:20:49.040Z,-3.23
2024-01-21T01:23:17.169Z,-3.17
2024-01-21T01:25:45.175Z,-3.17
2024-01-21T01:28:13.784Z,-3.14
2024-01-21T01:30:41.723Z,-3.18
2024-01-21T01:33:09.794Z,-3.22
2024-01-21T01:35:37.817Z,-3.24
2024-01-21T01:38:06.890Z,-3.24
2024-01-21T01:40:35.014Z,-3.24
2024-01-21T01:43:03.955Z,-3.26
2024-01-21T01:45:32.107Z,-3.21
2024-01-21T01:48:00.772Z,-3.30
2024-01-21T01:50:28.910Z,-3.36
2024-01-21T01:52:58.057Z,-3.38
2024-01-21T01:55:26.639Z,-3.52
2024-01-21T01:57:54.889Z,-3.64
2024-01-21T02:00:22.983Z,-3.71
2024-01-21T02:02:52.040Z,-3.72
2024-01-21T02:05:30.198Z,-3.76
2024-01-21T02:07:59.819Z,-3.84
2024-01-21T02:10:32.072Z,-3.83
2024-01-21T02:13:00.237Z,-3.79
2024-01-21T02:15:28.199Z,-3.74
2024-01-21T02:17:56.341Z,-3.70
2024-01-21T02:20:24.268Z,-3.68
2024-01-21T02:22:57.194Z,-3.65
2024-01-21T02:25:25.157Z,-3.64
2024-01-21T02:27:53.105Z,-3.62
2024-01-21T02:30:21.026Z,-3.59
2024-01-21T02:32:49.023Z,-3.58
2024-01-21T02:35:17.166Z,-3.58
2024-01-21T02:37:45.075Z,-3.58
2024-01-21T02:40:13.173Z,-3.57
2024-01-21T02:42:41.205Z,-3.51
2024-01-21T02:45:09.490Z,-3.53
2024-01-21T02:47:37.656Z,-3.53
2024-01-21T02:50:06.597Z,-3.56
2024-01-21T02:52:34.533Z,-3.51
2024-01-21T02:55:02.504Z,-3.51
2024-01-21T02:57:30.398Z,-3.55
2024-01-21T02:59:58.357Z,-3.53
2024-01-21T03:02:26.278Z,-3.49
2024-01-21T03:04:54.234Z,-3.48
2024-01-21T03:07:22.226Z,-3.53
2024-01-21T03:09:50.217Z,-3.57
2024-01-21T03:12:18.363Z,-3.57
2024-01-21T03:14:46.315Z,-3.58
2024-01-21T03:17:14.328Z,-3.58
2024-01-21T03:19:42.441Z,-3.58
2024-01-21T03:22:10.410Z,-3.59
2024-01-21T03:24:38.840Z,-3.57
2024-01-21T03:27:06.703Z,-3.54
2024-01-21T03:29:35.575Z,-3.54
2024-01-21T03:32:03.759Z,-3.55
2024-01-21T03:34:31.775Z,-3.55
2024-01-21T03:36:59.731Z,-3.55
2024-01-21T03:39:27.585Z,-3.57
2024-01-21T03:41:55.654Z,-3.58
2024-01-21T03:44:23.645Z,-3.62
2024-01-21T03:46:51.554Z,-3.66
2024-01-21T03:49:19.648Z,-3.68
2024-01-21T03:51:47.731Z,-3.73
2024-01-21T03:54:15.982Z,-3.75
2024-01-21T03:56:45.156Z,-3.73
2024-01-21T03:59:13.144Z,-3.76
2024-01-21T04:01:45.044Z,-3.81
2024-01-21T04:04:14.115Z,-3.85
2024-01-21T04:06:44.136Z,-3.93
2024-01-21T04:09:13.835Z,-3.98
2024-01-21T04:11:43.957Z,-3.99
2024-01-21T04:14:12.042Z,-3.99
2024-01-21T04:16:40.938Z,-3.99
2024-01-21T04:19:10.824Z,-4.01
2024-01-21T04:21:39.007Z,-4.03
2024-01-21T04:24:07.936Z,-4.05
2024-01-21T04:26:36.191Z,-4.07
2024-01-21T04:29:04.200Z,-4.02
2024-01-21T04:31:32.119Z,-4.05
2024-01-21T04:34:00.076Z,-4.09
2024-01-21T04:36:28.202Z,-4.09
2024-01-21T04:38:56.152Z,-4.07
2024-01-21T04:41:23.995Z,-4.04
2024-01-21T04:43:52.004Z,-4.04
2024-01-21T04:46:20.002Z,-4.11
2024-01-21T04:48:48.106Z,-4.18
2024-01-21T04:51:16.320Z,-4.18
2024-01-21T04:53:45.754Z,-4.23
2024-01-21T04:56:18.235Z,-4.25
2024-01-21T04:58:46.830Z,-4.29
2024-01-21T05:01:14.909Z,-4.31
2024-01-21T05:03:43.421Z,-4.30
2024-01-21T05:06:11.747Z,-4.29
2024-01-21T05:08:40.398Z,-4.29
2024-01-21T05:11:08.541Z,-4.32
2024-01-21T05:13:44.324Z,-4.36
2024-01-21T05:16:19.846Z,-4.35
2024-01-21T05:18:47.837Z,-4.39
2024-01-21T05:21:21.879Z,-4.44
2024-01-21T05:23:53.697Z,-4.43
2024-01-21T05:26:21.965Z,-4.43
2024-01-21T05:28:50.128Z,-4.45
2024-01-21T05:31:18.123Z,-4.42
2024-01-21T05:33:48.401Z,-4.40
2024-01-21T05:36:18.145Z,-4.38
2024-01-21T05:38:46.969Z,-4.37
2024-01-21T05:41:18.145Z,-4.32
2024-01-21T05:43:46.318Z,-4.25
2024-01-21T05:46:14.357Z,-4.27
2024-01-21T05:48:42.256Z,-4.31
2024-01-21T05:51:10.267Z,-4.36
2024-01-21T05:53:40.411Z,-4.38
2024-01-21T05:56:08.594Z,-4.34
2024-01-21T05:58:36.960Z,-4.30
2024-01-21T06:01:05.349Z,-4.33
2024-01-21T06:03:33.770Z,-4.35
2024-01-21T06:06:01.961Z,-4.39
2024-01-21T06:08:30.198Z,-4.38
2024-01-21T06:10:58.136Z,-4.38
2024-01-21T06:13:26.002Z,-4.41
2024-01-21T06:15:54.181Z,-4.44
2024-01-21T06:18:22.469Z,-4.43
2024-01-21T06:20:50.549Z,-4.46
2024-01-21T06:23:18.900Z,-4.48
2024-01-21T06:25:46.803Z,-4.39
2024-01-21T06:28:14.727Z,-4.28
2024-01-21T06:30:42.794Z,-4.28
2024-01-21T06:33:10.710Z,-4.30
2024-01-21T06:35:38.699Z,-4.33
2024-01-21T06:38:06.902Z,-4.38
2024-01-21T06:40:35.208Z,-4.48
2024-01-21T06:43:03.732Z,-4.52
2024-01-21T06:45:31.659Z,-4.46
2024-01-21T06:47:59.556Z,-4.48
2024-01-21T06:50:28.840Z,-4.50
2024-01-21T06:52:57.155Z,-4.53
2024-01-21T06:55:26.240Z,-4.53
2024-01-21T06:57:54.486Z,-4.53
2024-01-21T07:00:22.839Z,-4.50
2024-01-21T07:02:51.168Z,-4.44
2024-01-21T07:05:20.916Z,-4.40
2024-01-21T07:07:50.390Z,-4.40
2024-01-21T07:10:19.025Z,-4.37
2024-01-21T07:12:47.730Z,-4.30
2024-01-21T07:15:16.261Z,-4.23
2024-01-21T07:17:44.629Z,-4.17
2024-01-21T07:20:13.587Z,-4.11
2024-01-21T07:22:41.625Z,-4.08
2024-01-21T07:25:10.116Z,-4.01
2024-01-21T07:27:38.376Z,-3.96
2024-01-21T07:30:07.463Z,-3.93
2024-01-21T07:32:35.562Z,-3.87
2024-01-21T07:35:04.828Z,-3.80
2024-01-21T07:37:32.981Z,-3.72
2024-01-21T07:40:00.957Z,-3.64
2024-01-21T07:42:29.058Z,-3.57
2024-01-21T07:44:57.263Z,-3.51
2024-01-21T07:47:26.285Z,-3.43
2024-01-21T07:49:54.227Z,-3.31
2024-01-21T07:52:22.673Z,-3.18
2024-01-21T07:54:50.759Z,-3.12
2024-01-21T07:57:18.807Z,-3.07
2024-01-21T07:59:46.818Z,-2.96
2024-01-21T08:02:14.917Z,-2.89
2024-01-21T08:04:43.187Z,-2.87
2024-01-21T08:07:11.364Z,-2.81
2024-01-21T08:09:39.437Z,-2.73
2024-01-21T08:12:07.440Z,-2.69
2024-01-21T08:14:35.336Z,-2.65
2024-01-21T08:17:04.183Z,-2.63
2024-01-21T08:19:38.194Z,-2.64
2024-01-21T08:22:10.216Z,-2.64
2024-01-21T08:24:39.792Z,-2.57
2024-01-21T08:27:08.268Z,-2.55
2024-01-21T08:29:37.999Z,-2.50
2024-01-21T08:32:08.925Z,-2.46
2024-01-21T08:34:37.579Z,-2.42
2024-01-21T08:37:06.509Z,-2.33
2024-01-21T08:39:34.645Z,-2.30
2024-01-21T08:42:02.723Z,-2.22
2024-01-21T08:44:30.668Z,-2.16
2024-01-21T08:47:00.403Z,-2.10
2024-01-21T08:49:28.717Z,-2.08
2024-01-21T08:51:56.941Z,-2.03
2024-01-21T08:54:25.051Z,-1.97
2024-01-21T08:56:53.466Z,-1.92
2024-01-21T08:59:22.528Z,-1.90
2024-01-21T09:01:51.060Z,-1.85
2024-01-21T09:04:19.382Z,-1.80
2024-01-21T09:06:47.602Z,-1.74
2024-01-21T09:09:15.869Z,-1.71
2024-01-21T09:11:44.055Z,-1.65
2024-01-21T09:14:12.353Z,-1.60
2024-01-21T09:16:40.467Z,-1.56
2024-01-21T09:19:08.735Z,-1.49
2024-01-21T09:21:37.472Z,-1.43
2024-01-21T09:24:07.273Z,-1.36
2024-01-21T09:26:35.990Z,-1.27
2024-01-21T09:29:07.236Z,-1.22
2024-01-21T09:31:36.550Z,-1.18
2024-01-21T09:34:05.713Z,-1.13
2024-01-21T09:36:36.875Z,-1.08
2024-01-21T09:39:06.136Z,-1.03
2024-01-21T09:41:39.557Z,-0.97
2024-01-21T09:44:08.057Z,-0.89
2024-01-21T09:46:36.165Z,-0.82
2024-01-21T09:49:08.259Z,-0.74
2024-01-21T09:51:38.598Z,-0.69
2024-01-21T09:54:08.081Z,-0.63
2024-01-21T09:56:36.043Z,-0.54
2024-01-21T09:59:07.023Z,-0.47
2024-01-21T10:01:37.574Z,-0.39
2024-01-21T10:04:05.875Z,-0.34
2024-01-21T10:06:36.254Z,-0.29
2024-01-21T10:09:17.906Z,-0.24
2024-01-21T10:11:54.107Z,-0.19
2024-01-21T10:14:22.084Z,-0.16
2024-01-21T10:16:50.927Z,-0.13
2024-01-21T10:19:27.447Z,-0.10
2024-01-21T10:22:22.968Z,-0.10
2024-01-21T10:24:51.427Z,-0.02
2024-01-21T10:27:20.140Z,0.05
2024-01-21T10:29:48.610Z,0.10
2024-01-21T10:32:19.057Z,0.13
2024-01-21T10:34:52.077Z,0.15
2024-01-21T10:37:20.766Z,0.20
2024-01-21T10:39:50.286Z,0.23
2024-01-21T10:42:19.010Z,0.25
2024-01-21T10:44:48.018Z,0.30
2024-01-21T10:47:17.774Z,0.33
2024-01-21T10:49:50.137Z,0.35
2024-01-21T10:52:18.580Z,0.39
2024-01-21T10:54:48.348Z,0.46
2024-01-21T10:57:17.175Z,0.51
2024-01-21T10:59:50.121Z,0.57
2024-01-21T11:02:20.673Z,0.58
2024-01-21T11:04:49.177Z,0.61
2024-01-21T11:07:18.877Z,0.65
2024-01-21T11:09:48.629Z,0.67
2024-01-21T11:12:17.888Z,0.66
2024-01-21T11:14:46.248Z,0.70
2024-01-21T11:17:22.996Z,0.74
2024-01-21T11:19:59.305Z,0.72
2024-01-21T11:22:27.735Z,0.69
2024-01-21T11:24:58.017Z,0.67
2024-01-21T11:27:29.050Z,0.66
2024-01-21T11:30:03.762Z,0.67
2024-01-21T11:32:32.902Z,0.70
2024-01-21T11:35:20.975Z,0.74
2024-01-21T11:37:54.207Z,0.77
2024-01-21T11:40:22.882Z,0.78
2024-01-21T11:42:52.513Z,0.81
2024-01-21T11:45:21.052Z,0.80
2024-01-21T11:47:49.216Z,0.81
2024-01-21T11:50:20.552Z,0.83
2024-01-21T11:52:49.848Z,0.86
2024-01-21T11:55:22.364Z,0.89
2024-01-21T11:57:50.723Z,0.89
2024-01-21T12:00:22.298Z,0.89
2024-01-21T12:02:52.117Z,0.91
2024-01-21T12:05:20.610Z,0.92
2024-01-21T12:07:49.043Z,0.91
2024-01-21T12:10:17.510Z,0.89
2024-01-21T12:12:46.823Z,0.88
2024-01-21T12:15:15.044Z,0.89
2024-01-21T12:17:54.280Z,0.94
2024-01-21T12:20:22.645Z,0.98
2024-01-21T12:22:51.440Z,1.04
2024-01-21T12:25:19.876Z,1.03
2024-01-21T12:27:48.717Z,1.06
2024-01-21T12:30:16.915Z,1.10
2024-01-21T12:32:53.183Z,1.11
2024-01-21T12:35:26.718Z,1.10
2024-01-21T12:37:55.698Z,1.10
2024-01-21T12:40:26.826Z,1.09
2024-01-21T12:42:55.598Z,1.11
2024-01-21T12:45:23.663Z,1.12
2024-01-21T12:47:53.275Z,1.13
2024-01-21T12:50:23.197Z,1.16
2024-01-21T12:52:51.538Z,1.18
2024-01-21T12:55:19.869Z,1.18
2024-01-21T12:57:47.910Z,1.14
2024-01-21T13:00:16.786Z,1.12
2024-01-21T13:02:46.547Z,1.12
2024-01-21T13:05:16.507Z,1.14
2024-01-21T13:07:45.058Z,1.16
2024-01-21T13:10:13.447Z,1.18
2024-01-21T13:12:41.849Z,1.19
2024-01-21T13:15:10.225Z,1.20
2024-01-21T13:17:42.558Z,1.17
2024-01-21T13:20:11.531Z,1.17
2024-01-21T13:22:39.840Z,1.10
2024-01-21T13:25:14.380Z,1.08
2024-01-21T13:27:46.705Z,1.08
2024-01-21T13:30:33.904Z,1.09
2024-01-21T13:33:02.227Z,1.07
2024-01-21T13:35:31.282Z,1.06
2024-01-21T13:38:00.943Z,1.05
2024-01-21T13:40:30.608Z,1.04
2024-01-21T13:42:59.018Z,1.04
2024-01-21T13:45:27.676Z,1.05
2024-01-21T13:47:59.759Z,1.06
2024-01-21T13:50:28.336Z,1.05
2024-01-21T13:52:57.318Z,1.05
2024-01-21T13:55:25.518Z,1.04
2024-01-21T13:57:56.265Z,1.04
2024-01-21T14:00:25.854Z,1.04
2024-01-21T14:02:58.157Z,1.07
2024-01-21T14:05:28.032Z,1.08
2024-01-21T14:07:56.601Z,1.08
2024-01-21T14:10:25.253Z,1.02
2024-01-21T14:12:53.655Z,0.99
2024-01-21T14:15:22.085Z,0.96
2024-01-21T14:17:52.086Z,0.91
2024-01-21T14:20:20.137Z,0.87
2024-01-21T14:22:48.144Z,0.84
2024-01-21T14:25:33.298Z,0.82
2024-01-21T14:28:01.343Z,0.78
2024-01-21T14:30:35.273Z,0.73
2024-01-21T14:33:05.020Z,0.70
2024-01-21T14:35:33.656Z,0.67
2024-01-21T14:38:01.845Z,0.67
2024-01-21T14:40:32.751Z,0.66
2024-01-21T14:43:00.804Z,0.61
2024-01-21T14:45:29.065Z,0.58
2024-01-21T14:47:57.192Z,0.54
2024-01-21T14:50:25.305Z,0.51
2024-01-21T14:52:56.787Z,0.46
2024-01-21T14:55:25.966Z,0.38
2024-01-21T14:57:58.353Z,0.30
2024-01-21T15:00:26.632Z,0.28
2024-01-21T15:02:55.186Z,0.22
2024-01-21T15:05:23.137Z,0.18
2024-01-21T15:07:51.236Z,0.14
2024-01-21T15:10:20.668Z,0.11
2024-01-21T15:12:48.843Z,0.09
2024-01-21T15:15:36.727Z,0.05
2024-01-21T15:18:05.087Z,0.03
2024-01-21T15:20:33.144Z,0.01
2024-01-21T15:23:01.236Z,-0.02
2024-01-21T15:25:30.323Z,-0.08
2024-01-21T15:27:59.257Z,-0.11
2024-01-21T15:30:27.972Z,-0.13
2024-01-21T15:32:56.755Z,-0.17
2024-01-21T15:35:24.737Z,-0.24
2024-01-21T15:37:55.573Z,-0.29
2024-01-21T15:40:23.636Z,-0.30
2024-01-21T15:42:51.870Z,-0.33
2024-01-21T15:45:21.992Z,-0.38
2024-01-21T15:47:50.263Z,-0.39
2024-01-21T15:50:18.446Z,-0.45
2024-01-21T15:52:46.596Z,-0.48
2024-01-21T15:55:14.934Z,-0.53
2024-01-21T15:57:43.125Z,-0.60
2024-01-21T16:00:11.329Z,-0.62
2024-01-21T16:02:39.397Z,-0.63
2024-01-21T16:05:07.717Z,-0.66
2024-01-21T16:07:35.708Z,-0.65
2024-01-21T16:10:04.230Z,-0.68
2024-01-21T16:12:32.256Z,-0.70
2024-01-21T16:15:00.576Z,-0.71
2024-01-21T16:17:28.805Z,-0.74
2024-01-21T16:19:57.168Z,-0.75
2024-01-21T16:22:25.153Z,-0.73
2024-01-21T16:24:53.419Z,-0.74
2024-01-21T16:27:29.696Z,-0.78
2024-01-21T16:30:01.340Z,-0.80
2024-01-21T16:32:29.796Z,-0.82
2024-01-21T16:35:01.280Z,-0.82
2024-01-21T16:37:30.836Z,-0.83
2024-01-21T16:39:59.719Z,-0.84
2024-01-21T16:42:28.292Z,-0.84
2024-01-21T16:44:58.058Z,-0.86
2024-01-21T16:47:26.427Z,-0.88
2024-01-21T16:49:57.913Z,-0.90
2024-01-21T16:52:33.938Z,-0.91
2024-01-21T16:55:02.631Z,-0.93
2024-01-21T16:57:31.764Z,-0.94
2024-01-21T17:00:07.756Z,-0.94
2024-01-21T17:02:36.354Z,-0.95
2024-01-21T17:05:04.685Z,-0.96
2024-01-21T17:07:32.685Z,-0.97
2024-01-21T17:10:04.057Z,-0.98
2024-01-21T17:12:37.825Z,-0.99
2024-01-21T17:15:06.584Z,-1.02
2024-01-21T17:17:34.772Z,-1.03
2024-01-21T17:20:02.734Z,-1.02
2024-01-21T17:22:30.716Z,-1.02
2024-01-21T17:24:59.619Z,-0.99
2024-01-21T17:27:29.886Z,-0.98
2024-01-21T17:29:57.924Z,-0.97
2024-01-21T17:32:25.956Z,-0.98
2024-01-21T17:34:54.158Z,-1.00
2024-01-21T17:37:22.090Z,-1.00
2024-01-21T17:39:50.461Z,-1.02
2024-01-21T17:42:18.473Z,-1.04
2024-01-21T17:44:47.021Z,-1.03
2024-01-21T17:47:15.537Z,-1.02
2024-01-21T17:49:43.541Z,-1.03
2024-01-21T17:52:11.789Z,-1.05
2024-01-21T17:54:41.353Z,-1.07
2024-01-21T17:57:09.352Z,-1.10
2024-01-21T17:59:37.436Z,-1.13
2024-01-21T18:02:06.434Z,-1.14
2024-01-21T18:04:34.341Z,-1.16
2024-01-21T18:07:02.648Z,-1.16
2024-01-21T18:09:30.670Z,-1.17
2024-01-21T18:11:59.310Z,-1.19
2024-01-21T18:14:27.481Z,-1.18
2024-01-21T18:16:55.554Z,-1.18
2024-01-21T18:19:23.491Z,-1.18
2024-01-21T18:21:51.521Z,-1.24
2024-01-21T18:24:19.528Z,-1.29
2024-01-21T18:26:47.641Z,-1.36
2024-01-21T18:29:25.460Z,-1.44
2024-01-21T18:32:05.048Z,-1.48
2024-01-21T18:34:33.949Z,-1.52
2024-01-21T18:37:04.280Z,-1.53
2024-01-21T18:39:33.968Z,-1.57
2024-01-21T18:42:02.264Z,-1.59
2024-01-21T18:44:33.035Z,-1.59
2024-01-21T18:47:01.255Z,-1.58
2024-01-21T18:49:31.346Z,-1.59
2024-01-21T18:52:07.461Z,-1.59
2024-01-21T18:54:36.724Z,-1.61
2024-01-21T18:57:11.765Z,-1.65
2024-01-21T18:59:43.022Z,-1.68
2024-01-21T19:02:11.573Z,-1.70
2024-01-21T19:04:44.903Z,-1.68
2024-01-21T19:07:17.811Z,-1.70
2024-01-21T19:09:46.499Z,-1.72
2024-01-21T19:12:20.740Z,-1.75
2024-01-21T19:14:49.055Z,-1.78
2024-01-21T19:17:20.546Z,-1.85
2024-01-21T19:19:50.833Z,-1.92
2024-01-21T19:22:19.227Z,-1.95
2024-01-21T19:24:48.048Z,-1.99
2024-01-21T19:27:18.087Z,-2.03
2024-01-21T19:29:46.317Z,-2.04
2024-01-21T19:32:14.331Z,-2.09
2024-01-21T19:34:44.875Z,-2.11
2024-01-21T19:37:13.671Z,-2.08
2024-01-21T19:39:41.864Z,-2.13
2024-01-21T19:42:10.062Z,-2.10
2024-01-21T19:44:38.241Z,-2.10
2024-01-21T19:47:06.649Z,-2.12
2024-01-21T19:49:34.814Z,-2.15
2024-01-21T19:52:03.541Z,-2.20
2024-01-21T19:54:36.166Z,-2.29
2024-01-21T19:57:04.366Z,-2.32
2024-01-21T19:59:34.545Z,-2.35
2024-01-21T20:02:02.442Z,-2.42
2024-01-21T20:04:30.423Z,-2.46
2024-01-21T20:07:02.080Z,-2.46
2024-01-21T20:09:30.040Z,-2.51
2024-01-21T20:11:58.048Z,-2.51
2024-01-21T20:14:25.996Z,-2.54
2024-01-21T20:16:54.063Z,-2.55
2024-01-21T20:19:22.482Z,-2.56
2024-01-21T20:21:50.479Z,-2.53
2024-01-21T20:24:20.449Z,-2.55
2024-01-21T20:26:48.508Z,-2.59
2024-01-21T20:29:16.689Z,-2.68
2024-01-21T20:31:44.724Z,-2.77
2024-01-21T20:34:12.959Z,-2.84
2024-01-21T20:36:43.292Z,-2.86
2024-01-21T20:39:11.716Z,-2.88
2024-01-21T20:41:39.807Z,-2.89
2024-01-21T20:44:08.223Z,-2.89
2024-01-21T20:46:36.604Z,-2.88
2024-01-21T20:49:04.834Z,-2.85
2024-01-21T20:51:32.929Z,-2.83
2024-01-21T20:54:00.895Z,-2.80
2024-01-21T20:56:29.055Z,-2.75
2024-01-21T20:59:00.119Z,-2.75
2024-01-21T21:01:30.957Z,-2.76
2024-01-21T21:03:59.152Z,-2.77
2024-01-21T21:06:27.035Z,-2.77
2024-01-21T21:08:55.147Z,-2.79
2024-01-21T21:11:24.342Z,-2.76
2024-01-21T21:13:55.534Z,-2.77
2024-01-21T21:16:23.566Z,-2.79
2024-01-21T21:18:52.158Z,-2.78
2024-01-21T21:21:20.900Z,-2.79
2024-01-21T21:24:05.192Z,-2.74
2024-01-21T21:26:33.298Z,-2.74
2024-01-21T21:29:01.132Z,-2.76
2024-01-21T21:31:29.097Z,-2.76
2024-01-21T21:33:57.440Z,-2.78
2024-01-21T21:36:25.632Z,-2.76
2024-01-21T21:38:53.478Z,-2.79
2024-01-21T21:41:22.311Z,-2.80
2024-01-21T21:43:50.748Z,-2.82
2024-01-21T21:46:18.867Z,-2.86
2024-01-21T21:48:47.317Z,-2.89
2024-01-21T21:51:16.777Z,-2.91
2024-01-21T21:53:44.866Z,-2.93
2024-01-21T21:56:14.979Z,-2.93
2024-01-21T21:58:43.031Z,-2.97
2024-01-21T22:01:11.268Z,-2.96
2024-01-21T22:03:40.642Z,-3.00
2024-01-21T22:06:09.225Z,-2.94
2024-01-21T22:08:37.455Z,-3.00
2024-01-21T22:11:06.218Z,-3.05
2024-01-21T22:13:35.313Z,-3.05
2024-01-21T22:16:03.822Z,-3.00
2024-01-21T22:18:37.108Z,-3.00
2024-01-21T22:21:06.483Z,-3.03
2024-01-21T22:23:34.602Z,-3.10
2024-01-21T22:26:03.021Z,-3.15
2024-01-21T22:28:30.864Z,-3.14
2024-01-21T22:30:58.758Z,-3.15
2024-01-21T22:33:26.808Z,-3.16
2024-01-21T22:35:55.038Z,-3.19
2024-01-21T22:38:22.956Z,-3.21
2024-01-21T22:40:53.012Z,-3.25
2024-01-21T22:43:21.976Z,-3.22
2024-01-21T22:45:50.448Z,-3.17
2024-01-21T22:48:18.442Z,-3.19
2024-01-21T22:50:46.746Z,-3.24
2024-01-21T22:53:16.611Z,-3.27
2024-01-21T22:55:44.885Z,-3.34
2024-01-21T22:58:13.489Z,-3.39
2024-01-21T23:00:41.966Z,-3.39
2024-01-21T23:03:10.130Z,-3.43
2024-01-21T23:05:38.842Z,-3.42
2024-01-21T23:08:07.105Z,-3.37
2024-01-21T23:10:35.199Z,-3.36
2024-01-21T23:13:03.432Z,-3.32
2024-01-21T23:15:31.517Z,-3.30
2024-01-21T23:17:59.513Z,-3.28
2024-01-21T23:20:27.462Z,-3.24
2024-01-21T23:22:55.334Z,-3.26
2024-01-21T23:25:23.536Z,-3.31
2024-01-21T23:27:51.497Z,-3.29
2024-01-21T23:30:19.784Z,-3.24
2024-01-21T23:32:47.822Z,-3.25
2024-01-21T23:35:15.869Z,-3.25
2024-01-21T23:37:43.785Z,-3.27
2024-01-21T23:40:12.332Z,-3.27
2024-01-21T23:42:40.620Z,-3.20
2024-01-21T23:45:09.330Z,-3.18
2024-01-21T23:47:37.945Z,-3.19
2024-01-21T23:50:08.883Z,-3.18
2024-01-21T23:52:36.909Z,-3.20
2024-01-21T23:55:05.305Z,-3.22
2024-01-21T23:57:33.632Z,-3.19
